Terminal Aerodrome Forecast
Issued by NWS

Home | Current Version | Previous Version | Graphics & Text | Print | Product List | Glossary On
Versions: 1 2 3 4 5 6 7 8 9 10 11 12 13 14 15 16 17
000
FTUS43 KIWX 201100
TAFSBN
TAF
KSBN 201120Z 2012/2112 20009KT P6SM SCT120 BKN250
     FM201400 21016G23KT P6SM SCT050 SCT120
     FM202000 22013KT P6SM VCTS BKN040CB
     FM202300 21007KT P6SM BKN025=

USA.gov is the U.S. government's official web portal to all federal, state and local government web resources and services.